Time;durP1;ratioP1;P1;durP2;ratioP2;P2;SDS_P1;SDS_P2;PMS_P1;PMS_P2;Temp;Humidity;BMP_temperature;BMP_pressure;BME280_temperature;BME280_humidity;BME280_pressure;Samples;Min_cycle;Max_cycle;Signal;HPM_P1;HPM_P2
2022/10/12 00:00:23;;;;;;;;;;;;;;;6.08;80.35;101622.97;4973933;28;20292;-85
2022/10/12 00:03:26;;;;;;;10.55;2.45;;;;;;;6.04;80.15;101616.13;4974460;28;19968;-84
2022/10/12 00:06:29;;;;;;;;;;;;;;;6.04;79.64;101621.31;4981276;28;20053;-83
2022/10/12 00:09:32;;;;;;;5.35;2.00;;;;;;;6.25;79.56;101617.50;4993577;28;19925;-83
2022/10/12 00:12:38;;;;;;;5.38;1.80;;;;;;;6.20;79.41;101617.59;4993252;28;20061;-84
2022/10/12 00:15:41;;;;;;;6.00;3.00;;;;;;;6.07;79.83;101617.81;4992739;28;20049;-83
2022/10/12 00:18:50;;;;;;;22.30;2.58;;;;;;;6.22;79.28;101623.63;4993627;28;20093;-83
2022/10/12 00:21:54;;;;;;;7.10;2.65;;;;;;;6.22;79.97;101626.22;4993637;28;20511;-83
2022/10/12 00:24:58;;;;;;;7.78;2.10;;;;;;;6.04;80.53;101621.31;4993496;28;20061;-83
2022/10/12 00:28:01;;;;;;;;;;;;;;;6.12;80.16;101622.03;4993762;28;20415;-84
2022/10/12 00:31:11;;;;;;;9.30;2.13;;;;;;;6.21;79.20;101624.47;4993349;28;19920;-82
2022/10/12 00:34:18;;;;;;;8.80;2.33;;;;;;;6.14;79.16;101622.03;4993091;28;20073;-82
2022/10/12 00:37:22;;;;;;;4.07;2.17;;;;;;;6.15;79.05;101619.38;4993113;28;20044;-83
2022/10/12 00:40:27;;;;;;;38.13;3.13;;;;;;;5.63;80.36;101629.69;4993426;28;20052;-82
2022/10/12 00:43:38;;;;;;;9.18;2.10;;;;;;;5.87;80.46;101634.53;4992706;28;20049;-82
2022/10/12 00:46:45;;;;;;;3.53;1.90;;;;;;;6.09;80.55;101624.69;4991551;28;20078;-82
2022/10/12 00:50:19;;;;;;;8.02;1.95;;;;;;;5.90;79.96;101628.41;4992799;28;20147;-82
2022/10/12 00:53:28;;;;;;;4.45;2.20;;;;;;;5.95;79.46;101624.06;4992336;28;20527;-82
2022/10/12 00:56:44;;;;;;;4.15;2.30;;;;;;;5.89;80.04;101629.31;4992427;28;20108;-86
2022/10/12 01:00:02;;;;;;;7.18;1.92;;;;;;;5.85;79.35;101625.03;4992517;28;20049;-83
2022/10/12 01:03:09;;;;;;;4.25;2.22;;;;;;;5.78;79.80;101627.72;4992168;28;20085;-83
2022/10/12 01:06:13;;;;;;;7.88;2.17;;;;;;;5.79;79.76;101629.44;4991814;28;20563;-84
2022/10/12 01:09:54;;;;;;;4.75;2.00;;;;;;;5.86;79.59;101631.94;4992564;28;20337;-84
2022/10/12 01:13:11;;;;;;;6.57;1.92;;;;;;;5.95;79.35;101627.50;4992445;28;20487;-83
2022/10/12 01:16:43;;;;;;;3.53;1.80;;;;;;;5.88;79.51;101625.00;4992248;28;20057;-83
2022/10/12 01:20:05;;;;;;;5.53;2.20;;;;;;;5.93;79.43;101618.00;4992502;28;20448;-83
2022/10/12 01:23:17;;;;;;;16.10;2.13;;;;;;;5.69;79.93;101630.47;4991864;28;20412;-83
2022/10/12 01:26:44;;;;;;;5.60;2.38;;;;;;;5.80;79.16;101628.53;4991678;28;20088;-83
2022/10/12 01:29:54;;;;;;;9.88;2.40;;;;;;;5.65;79.54;101627.91;4992720;28;20053;-83
2022/10/12 01:33:23;;;;;;;6.28;2.00;;;;;;;5.78;79.55;101622.53;4984302;28;20149;-85
2022/10/12 01:36:38;;;;;;;6.10;2.00;;;;;;;5.83;79.43;101622.47;4984017;28;20417;-85
2022/10/12 01:40:05;;;;;;;6.35;1.80;;;;;;;5.86;79.28;101611.19;4991202;28;20062;-84
2022/10/12 01:43:09;;;;;;;4.93;2.92;;;;;;;5.86;79.11;101608.59;4972817;28;20177;-84
2022/10/12 01:47:01;;;;;;;4.72;1.63;;;;;;;5.68;80.07;101614.88;4980002;28;20133;-83
2022/10/12 01:50:59;;;;;;;8.43;2.05;;;;;;;5.78;79.44;101608.72;4986683;28;20069;-83
2022/10/12 01:54:24;;;;;;;5.05;1.63;;;;;;;5.74;79.20;101601.81;4990600;28;20576;-83
2022/10/12 01:57:39;;;;;;;6.50;2.45;;;;;;;5.63;79.23;101606.34;4992004;28;20103;-82
2022/10/12 02:01:15;;;;;;;3.45;2.08;;;;;;;5.71;78.52;101602.75;4988505;28;20554;-82
2022/10/12 02:04:45;;;;;;;6.05;1.50;;;;;;;5.65;78.79;101597.66;4992302;28;20517;-83
2022/10/12 02:07:51;;;;;;;12.27;1.80;;;;;;;5.46;79.01;101604.84;4992097;28;20132;-83
2022/10/12 02:11:04;;;;;;;12.40;2.15;;;;;;;5.39;79.51;101599.75;4995572;28;20069;-83
2022/10/12 02:14:14;;;;;;;6.75;1.30;;;;;;;5.34;79.97;101603.25;4995719;28;20045;-83
2022/10/12 02:17:22;;;;;;;6.50;2.00;;;;;;;5.59;79.22;101602.94;4994854;28;20131;-83
2022/10/12 02:20:26;;;;;;;7.63;1.73;;;;;;;5.48;79.21;101599.63;4995456;28;20408;-82
2022/10/12 02:23:53;;;;;;;12.23;1.63;;;;;;;5.40;79.51;101598.88;4992837;28;20065;-84
2022/10/12 02:26:59;;;;;;;6.90;1.23;;;;;;;5.42;79.23;101600.56;4976273;28;20126;-83
2022/10/12 02:30:03;;;;;;;6.95;1.80;;;;;;;5.56;79.33;101597.78;4976518;28;20066;-83
2022/10/12 02:33:33;;;;;;;3.08;1.55;;;;;;;5.28;79.54;101592.97;4976191;28;20118;-83
2022/10/12 02:36:51;;;;;;;12.50;2.03;;;;;;;5.45;78.73;101589.28;4993376;28;20053;-84
2022/10/12 02:40:05;;;;;;;6.28;1.70;;;;;;;5.26;79.50;101589.53;4995168;28;20575;-83
2022/10/12 02:43:16;;;;;;;3.85;1.80;;;;;;;5.44;78.47;101587.56;4994476;28;20459;-84
2022/10/12 02:46:23;;;;;;;6.38;1.83;;;;;;;5.31;78.77;101587.75;4995375;28;20065;-84
2022/10/12 02:49:29;;;;;;;5.43;1.70;;;;;;;5.38;78.81;101583.31;4994123;28;20057;-84
2022/10/12 02:52:33;;;;;;;7.70;1.48;;;;;;;5.21;79.32;101580.13;4995052;28;20558;-84
2022/10/12 02:55:45;;;;;;;6.53;1.50;;;;;;;5.24;78.91;101572.31;4994525;28;20188;-84
2022/10/12 02:58:49;;;;;;;6.40;1.40;;;;;;;5.06;79.05;101570.78;4995152;28;20045;-84
2022/10/12 03:01:55;;;;;;;6.53;1.67;;;;;;;5.09;79.59;101570.75;4994943;28;20053;-84
2022/10/12 03:04:59;;;;;;;4.75;1.10;;;;;;;5.11;79.60;101563.81;4994820;28;20566;-84
2022/10/12 03:08:02;;;;;;;;;;;;;;;5.00;79.09;101576.03;4994174;28;20100;-84
2022/10/12 03:11:07;;;;;;;7.03;1.48;;;;;;;4.93;79.70;101571.81;4993563;28;19964;-85
2022/10/12 03:14:21;;;;;;;3.20;1.30;;;;;;;5.14;78.98;101566.38;4993688;28;20056;-83
2022/10/12 03:17:25;;;;;;;6.03;1.25;;;;;;;5.00;79.05;101563.09;4993508;28;20049;-83
2022/10/12 03:20:29;;;;;;;6.03;1.35;;;;;;;5.06;79.16;101560.41;4993709;28;20045;-83
2022/10/12 03:23:32;;;;;;;5.05;1.20;;;;;;;5.17;78.17;101568.94;4994707;28;20065;-84
2022/10/12 03:26:36;;;;;;;3.45;1.35;;;;;;;5.16;77.99;101569.78;4994405;28;20077;-84
2022/10/12 03:29:40;;;;;;;;;;;;;;;5.22;76.83;101572.31;4994971;28;20108;-84
2022/10/12 03:32:43;;;;;;;3.95;1.35;;;;;;;5.12;76.63;101568.13;4994551;28;19925;-85
2022/10/12 03:35:49;;;;;;;5.63;1.73;;;;;;;4.86;77.63;101573.63;4994619;28;20057;-85
2022/10/12 03:38:52;;;;;;;4.45;1.13;;;;;;;4.90;77.88;101570.97;4993657;28;20077;-85
2022/10/12 03:45:51;;;;;;;;;;;;;;;4.86;77.65;101564.13;4994757;28;20303;-87
2022/10/12 03:49:08;;;;;;;3.33;1.25;;;;;;;4.97;77.00;101570.91;4994079;28;19925;-86
2022/10/12 03:52:12;;;;;;;7.68;1.33;;;;;;;4.99;77.05;101569.16;4993784;28;20065;-86
2022/10/12 03:55:16;;;;;;;6.40;1.33;;;;;;;4.85;77.70;101572.78;4993551;28;20042;-87
2022/10/12 03:58:19;;;;;;;;;;;;;;;4.88;77.62;101567.56;4994552;28;20081;-88
2022/10/12 04:01:22;;;;;;;6.22;2.95;;;;;;;4.50;79.04;101573.19;4986136;28;19941;-86
2022/10/12 04:04:28;;;;;;;38.38;34.45;;;;;;;4.70;77.46;101566.91;4990671;28;20053;-80
2022/10/12 04:07:34;;;;;;;6.32;5.53;;;;;;;4.63;77.88;101564.41;4982820;28;20045;-81
2022/10/12 04:11:00;;;;;;;6.50;2.13;;;;;;;4.82;77.38;101564.19;4976471;28;20077;-88
2022/10/12 04:14:05;;;;;;;5.28;1.83;;;;;;;4.89;76.94;101571.84;4992817;28;20053;-85
2022/10/12 04:17:30;;;;;;;4.30;1.20;;;;;;;4.86;76.51;101569.31;4990291;28;20089;-86
2022/10/12 04:20:33;;;;;;;4.20;1.10;;;;;;;4.84;75.97;101563.28;4974155;28;20516;-84
2022/10/12 04:23:45;;;;;;;;;;;;;;;4.85;75.86;101571.91;4983017;28;20416;-88
2022/10/12 04:26:49;;;;;;;4.53;1.33;;;;;;;4.91;75.73;101571.81;4993478;28;19945;-83
2022/10/12 04:34:54;;;;;;;5.30;1.60;;;;;;;5.06;75.06;101570.78;4970362;28;20101;-86
2022/10/12 04:38:17;;;;;;;5.00;1.38;;;;;;;5.06;75.51;101568.19;4972655;28;20057;-87
2022/10/12 04:41:25;;;;;;;7.25;2.08;;;;;;;4.74;76.77;101566.84;4969622;28;20049;-86
2022/10/12 04:44:47;;;;;;;6.28;1.80;;;;;;;4.79;77.13;101564.22;4968886;28;20049;-87
2022/10/12 04:47:52;;;;;;;5.80;1.83;;;;;;;4.78;77.32;101568.53;4983455;28;20053;-81
2022/10/12 04:50:55;;;;;;;7.35;1.98;;;;;;;4.96;77.60;101575.22;4968757;28;20104;-83
2022/10/12 04:54:00;;;;;;;8.98;2.38;;;;;;;4.61;78.71;101573.06;4968890;28;20097;-84
2022/10/12 04:57:05;;;;;;;10.93;2.35;;;;;;;4.48;78.18;101566.28;4969039;28;20049;-82
2022/10/12 05:00:09;;;;;;;8.98;1.85;;;;;;;4.39;79.63;101562.06;4984054;28;20049;-83
2022/10/12 05:03:13;;;;;;;7.22;1.90;;;;;;;4.55;78.67;101568.78;4989108;28;20048;-82
2022/10/12 05:06:19;;;;;;;7.40;1.80;;;;;;;4.62;77.28;101564.41;4988915;28;20080;-83
2022/10/12 05:09:22;;;;;;;3.13;1.45;;;;;;;4.75;77.66;101568.56;4988388;28;20542;-81
2022/10/12 05:12:27;;;;;;;5.35;1.65;;;;;;;4.76;77.61;101570.28;4977062;28;20514;-82
2022/10/12 05:15:31;;;;;;;4.13;1.63;;;;;;;4.78;77.35;101560.75;4980026;28;20049;-82
2022/10/12 05:18:35;;;;;;;3.15;1.38;;;;;;;4.54;77.91;101563.63;4986531;28;20037;-83
2022/10/12 05:21:41;;;;;;;5.78;2.05;;;;;;;4.67;77.42;101562.63;4988298;28;20507;-83
2022/10/12 05:24:44;;;;;;;7.63;1.52;;;;;;;4.67;77.47;101562.63;4976922;28;20053;-82
2022/10/12 05:27:51;;;;;;;4.85;1.35;;;;;;;4.82;77.17;101561.59;5009089;28;20049;-83
2022/10/12 05:30:57;;;;;;;4.63;1.80;;;;;;;4.74;77.42;101568.59;4988319;28;20044;-81
2022/10/12 05:34:03;;;;;;;7.05;2.22;;;;;;;4.67;77.61;101565.22;4987754;28;20052;-83
2022/10/12 05:37:06;;;;;;;3.10;1.73;;;;;;;4.61;78.19;101562.69;4985968;28;20054;-83
2022/10/12 05:40:09;;;;;;;;;;;;;;;4.62;78.29;101552.28;4992440;28;20061;-82
2022/10/12 05:43:13;;;;;;;2.90;1.55;;;;;;;4.69;77.53;101558.28;4992779;28;19968;-82
2022/10/12 05:46:16;;;;;;;7.18;2.70;;;;;;;4.67;77.67;101549.66;4994738;28;20104;-83
2022/10/12 05:49:20;;;;;;;6.70;1.73;;;;;;;4.73;77.51;101551.34;4982566;28;20078;-80
2022/10/12 05:52:25;;;;;;;3.05;1.70;;;;;;;4.80;77.23;101547.78;5000603;28;20101;-79
2022/10/12 05:55:28;;;;;;;;;;;;;;;4.70;77.72;101548.78;4979683;28;20563;-80
2022/10/12 05:58:32;;;;;;;4.40;2.15;;;;;;;4.77;77.78;101553.88;5001108;28;19923;-80
2022/10/12 06:01:35;;;;;;;11.73;4.18;;;;;;;4.57;78.84;101555.84;4989221;28;20134;-80
2022/10/12 06:04:39;;;;;;;13.38;3.38;;;;;;;4.48;79.48;101555.94;4968968;28;20166;-79
2022/10/12 06:07:43;;;;;;;;;;;;;;;4.53;79.25;101556.72;4992738;28;20619;-78
2022/10/12 06:10:49;;;;;;;10.00;3.10;;;;;;;4.73;78.82;101562.56;4990932;28;19936;-80
2022/10/12 06:13:53;;;;;;;5.03;2.53;;;;;;;4.41;80.09;101560.31;4979186;28;20760;-80
2022/10/12 06:16:57;;;;;;;5.28;2.83;;;;;;;4.35;80.16;101562.97;4990964;28;20081;-80
2022/10/12 06:20:01;;;;;;;4.63;3.03;;;;;;;4.40;80.00;101550.81;4990999;28;20647;-80
2022/10/12 06:23:06;;;;;;;6.32;3.00;;;;;;;4.33;80.26;101554.34;4989860;28;20077;-81
2022/10/12 06:26:09;;;;;;;6.15;2.90;;;;;;;4.60;79.39;101556.66;4990336;28;20077;-79
2022/10/12 06:29:13;;;;;;;11.35;2.90;;;;;;;4.62;79.39;101556.63;4990956;28;20673;-80
2022/10/12 06:32:16;;;;;;;5.13;2.42;;;;;;;4.77;78.33;101563.38;4970988;28;20129;-79
2022/10/12 06:35:20;;;;;;;;;;;;;;;4.69;78.85;101565.19;4971059;28;20313;-79
2022/10/12 06:38:24;;;;;;;5.72;3.08;;;;;;;4.79;78.61;101569.41;4989442;28;19924;-80
2022/10/12 06:41:27;;;;;;;5.82;2.65;;;;;;;4.75;77.91;101565.13;4991327;28;20144;-77
2022/10/12 06:44:31;;;;;;;5.07;2.25;;;;;;;4.51;78.78;101567.09;4990546;28;20041;-78
2022/10/12 06:47:35;;;;;;;;;;;;;;;4.69;78.08;101566.06;4989586;28;20089;-78
2022/10/12 06:50:39;;;;;;;4.22;2.40;;;;;;;4.71;78.43;101572.06;4989461;28;19968;-80
2022/10/12 06:53:42;;;;;;;4.72;2.65;;;;;;;4.75;78.33;101573.75;4990378;28;20048;-77
2022/10/12 06:56:45;;;;;;;;;;;;;;;4.79;78.01;101575.44;4990538;28;20092;-79
2022/10/12 06:59:48;;;;;;;4.20;1.67;;;;;;;4.88;77.88;101570.16;4990906;28;19972;-78
2022/10/12 07:02:52;;;;;;;3.72;2.00;;;;;;;4.92;77.42;101568.38;4991228;28;20126;-78
2022/10/12 07:06:04;;;;;;;4.40;2.10;;;;;;;4.85;78.01;101572.78;4986669;28;20054;-78
2022/10/12 07:09:07;;;;;;;3.75;2.10;;;;;;;4.98;78.39;101582.97;4986609;28;20074;-79
2022/10/12 07:12:12;;;;;;;4.35;2.75;;;;;;;5.15;77.19;101586.22;4986696;28;20748;-78
2022/10/12 07:15:15;;;;;;;4.68;2.53;;;;;;;5.11;76.73;101584.56;4985526;28;20117;-79
2022/10/12 07:18:22;;;;;;;5.00;2.78;;;;;;;4.87;77.54;101594.34;4986076;28;20081;-78
2022/10/12 07:21:25;;;;;;;;;;;;;;;4.96;77.30;101592.53;4985429;28;20526;-78
2022/10/12 07:24:37;;;;;;;2.83;1.73;;;;;;;4.92;78.73;101594.31;4988382;28;19936;-78
2022/10/12 07:27:41;;;;;;;8.00;2.70;;;;;;;4.96;78.25;101595.13;4988096;28;20073;-77
2022/10/12 07:30:46;;;;;;;6.38;1.90;;;;;;;5.03;77.92;101594.16;4984657;28;20514;-81
2022/10/12 07:33:49;;;;;;;6.13;2.20;;;;;;;4.99;77.98;101592.50;4981473;28;20459;-78
2022/10/12 07:36:54;;;;;;;;;;;;;;;5.02;78.67;101597.63;4985254;28;20081;-78
2022/10/12 07:39:58;;;;;;;4.20;1.75;;;;;;;4.99;79.00;101595.09;4983882;28;19925;-80
2022/10/12 07:43:01;;;;;;;;;;;;;;;5.09;78.47;101591.50;4983175;28;20105;-79
2022/10/12 07:46:04;;;;;;;3.33;1.90;;;;;;;5.23;78.12;101589.59;4986408;28;19921;-78
2022/10/12 07:49:10;;;;;;;;;;;;;;;5.25;78.07;101590.41;4988846;28;20129;-78
2022/10/12 07:52:16;;;;;;;3.30;1.70;;;;;;;5.23;78.32;101584.41;4989766;28;19940;-78
2022/10/12 07:55:20;;;;;;;4.45;2.05;;;;;;;5.31;78.68;101592.94;4989242;28;20562;-78
2022/10/12 07:58:25;;;;;;;;;;;;;;;5.41;77.46;101590.22;4990822;28;20392;-78
2022/10/12 08:01:29;;;;;;;5.00;3.42;;;;;;;5.38;77.64;101600.63;4989426;28;20020;-78
2022/10/12 08:04:33;;;;;;;5.88;3.33;;;;;;;5.26;78.03;101592.13;4988923;28;20149;-78
2022/10/12 08:07:37;;;;;;;4.88;2.42;;;;;;;5.47;79.07;101596.16;4987048;28;20081;-78
2022/10/12 08:10:40;;;;;;;;;;;;;;;5.28;79.59;101592.13;4988854;28;20165;-78
2022/10/12 08:13:44;;;;;;;4.40;1.70;;;;;;;5.48;78.53;101594.44;4989483;28;19920;-78
2022/10/12 08:16:48;;;;;;;5.90;4.55;;;;;;;5.60;78.10;101592.50;4988940;28;20128;-78
2022/10/12 08:19:51;;;;;;;11.85;8.27;;;;;;;5.59;78.20;101595.16;4989927;28;20102;-78
2022/10/12 08:22:56;;;;;;;5.03;2.85;;;;;;;5.55;78.78;101588.25;4986551;28;20064;-78
2022/10/12 08:26:01;;;;;;;6.72;4.53;;;;;;;5.66;78.19;101580.34;4988274;28;20455;-85
2022/10/12 08:29:05;;;;;;;2.90;1.83;;;;;;;5.73;79.52;101572.44;4986569;28;20089;-79
2022/10/12 08:32:09;;;;;;;4.57;2.60;;;;;;;5.91;79.34;101580.81;4997876;28;20073;-83
2022/10/12 08:35:12;;;;;;;7.00;1.75;;;;;;;5.93;79.10;101571.28;4988426;28;20041;-81
2022/10/12 08:38:16;;;;;;;;;;;;;;;5.63;80.75;101570.88;4987676;28;20193;-77
2022/10/12 08:41:39;;;;;;;4.05;2.05;;;;;;;5.20;84.83;101563.72;4983452;28;19924;-80
2022/10/12 08:45:01;;;;;;;3.55;2.28;;;;;;;5.42;87.67;101564.25;4983200;28;20441;-74
2022/10/12 08:48:12;;;;;;;3.90;2.10;;;;;;;5.81;84.41;101556.75;4970157;28;20527;-74
2022/10/12 08:51:24;;;;;;;8.32;3.88;;;;;;;5.95;83.04;101554.81;4970646;28;20150;-74
2022/10/12 08:54:36;;;;;;;5.93;3.25;;;;;;;6.20;81.74;101555.25;4987219;28;20069;-79
2022/10/12 08:57:40;;;;;;;7.25;3.92;;;;;;;6.25;81.87;101553.44;4982990;28;20104;-80
2022/10/12 09:00:49;;;;;;;5.18;2.58;;;;;;;6.37;83.12;101556.69;4987496;28;20096;-79
2022/10/12 09:03:59;;;;;;;6.25;2.38;;;;;;;6.43;83.50;101556.56;4988540;28;20076;-79
2022/10/12 09:07:22;;;;;;;4.78;2.20;;;;;;;6.56;83.41;101554.59;4989294;28;20053;-79
2022/10/12 09:10:33;;;;;;;5.47;2.38;;;;;;;6.72;82.74;101548.22;4988912;28;20093;-79
2022/10/12 09:14:05;;;;;;;7.07;2.08;;;;;;;6.95;82.81;101552.94;4978631;28;20050;-79
2022/10/12 09:17:24;;;;;;;5.35;2.50;;;;;;;7.22;82.35;101543.72;4987626;28;20476;-79
2022/10/12 09:20:31;;;;;;;6.57;2.75;;;;;;;7.36;82.54;101543.38;4982625;28;20081;-80
2022/10/12 09:23:40;;;;;;;6.57;3.42;;;;;;;7.50;82.97;101537.84;4986420;28;20105;-79
2022/10/12 09:26:48;;;;;;;7.57;3.33;;;;;;;7.60;82.37;101537.63;4982828;28;20432;-79
2022/10/12 09:29:59;;;;;;;5.93;3.15;;;;;;;7.66;82.33;101534.03;4988586;28;20044;-79
2022/10/12 09:33:44;;;;;;;9.55;3.35;;;;;;;7.83;82.08;101536.22;4988330;28;20527;-79
2022/10/12 09:36:49;;;;;;;6.85;2.95;;;;;;;7.84;81.25;101530.94;4988814;28;20097;-81
2022/10/12 09:39:56;;;;;;;4.78;2.60;;;;;;;7.91;81.63;101519.50;4987769;28;20054;-81
2022/10/12 09:43:02;;;;;;;8.52;3.33;;;;;;;8.02;81.34;101516.63;4998818;28;20758;-80
2022/10/12 09:46:12;;;;;;;9.93;3.83;;;;;;;8.02;81.25;101511.41;4988967;28;20045;-81
2022/10/12 09:49:15;;;;;;;9.25;3.55;;;;;;;8.10;81.41;101512.09;4988699;28;20404;-80
2022/10/12 09:52:28;;;;;;;10.02;3.10;;;;;;;8.29;82.74;101499.38;4989501;28;20104;-80
2022/10/12 09:55:32;;;;;;;7.50;3.50;;;;;;;8.41;82.10;101503.44;4989051;28;20054;-81
2022/10/12 09:58:48;;;;;;;8.02;3.35;;;;;;;8.55;80.98;101510.88;4988584;28;20539;-80
2022/10/12 10:02:06;;;;;;;10.00;3.72;;;;;;;8.60;81.88;101503.78;4999251;28;20049;-81
2022/10/12 10:05:32;;;;;;;9.10;3.65;;;;;;;8.65;81.19;101499.31;4987631;28;20549;-80
2022/10/12 10:09:22;;;;;;;8.95;3.58;;;;;;;8.73;80.86;101504.31;4988454;28;20045;-80
2022/10/12 10:12:26;;;;;;;9.25;3.20;;;;;;;8.91;81.09;101503.78;4986779;28;20041;-79
2022/10/12 10:15:34;;;;;;;8.43;3.58;;;;;;;9.06;80.14;101489.38;4987732;28;20065;-78
2022/10/12 10:18:49;;;;;;;11.90;3.25;;;;;;;9.17;78.75;101486.47;4987170;28;20073;-79
2022/10/12 10:21:54;;;;;;;9.18;3.58;;;;;;;9.19;78.68;101487.25;4987698;28;20092;-80
2022/10/12 10:24:59;;;;;;;7.68;2.80;;;;;;;9.25;77.05;101477.50;4987160;28;20049;-82
2022/10/12 10:28:21;;;;;;;13.18;3.72;;;;;;;9.36;76.59;101474.53;4987893;28;20055;-78
2022/10/12 10:31:28;;;;;;;11.95;3.35;;;;;;;9.44;75.89;101472.53;4988700;28;20100;-82
2022/10/12 10:34:32;;;;;;;8.13;3.03;;;;;;;9.62;75.05;101476.31;4990890;28;20049;-80
2022/10/12 10:37:37;;;;;;;10.77;3.05;;;;;;;9.88;74.71;101475.41;4976901;28;20109;-82
2022/10/12 10:40:40;;;;;;;11.60;3.30;;;;;;;10.02;73.83;101470.59;4981479;28;20049;-82
2022/10/12 10:43:47;;;;;;;7.50;3.47;;;;;;;10.16;74.54;101466.63;5002218;28;20129;-82
2022/10/12 10:47:06;;;;;;;9.45;3.65;;;;;;;10.31;74.40;101466.13;4992324;28;20044;-82
2022/10/12 10:50:27;;;;;;;14.45;3.03;;;;;;;10.42;74.36;101458.72;4991571;28;20069;-81
2022/10/12 10:53:42;;;;;;;8.82;3.10;;;;;;;10.52;73.07;101458.38;4991874;28;20040;-81
2022/10/12 10:56:49;;;;;;;10.35;2.72;;;;;;;10.58;74.04;101448.56;4992533;28;20046;-81
2022/10/12 11:00:00;;;;;;;12.05;3.22;;;;;;;10.67;74.33;101447.38;4992497;28;20045;-81
2022/10/12 11:03:11;;;;;;;6.32;3.03;;;;;;;10.75;74.04;101444.44;4992257;28;20048;-81
2022/10/12 11:06:28;;;;;;;8.55;2.95;;;;;;;10.79;73.18;101435.59;4991387;28;20085;-81
2022/10/12 11:09:43;;;;;;;9.25;3.05;;;;;;;10.79;74.23;101431.19;4991156;28;20054;-81
2022/10/12 11:12:51;;;;;;;6.80;2.75;;;;;;;10.82;75.58;101425.84;4991420;28;20416;-82
2022/10/12 11:16:32;;;;;;;14.75;3.40;;;;;;;10.91;73.88;101435.97;4990819;28;20495;-82
2022/10/12 11:19:46;;;;;;;8.70;2.72;;;;;;;10.93;73.16;101428.88;4989321;28;20101;-81
2022/10/12 11:22:56;;;;;;;7.82;2.60;;;;;;;10.90;73.52;101426.38;4990637;28;20089;-79
2022/10/12 11:26:02;;;;;;;7.25;2.80;;;;;;;10.99;73.73;101424.34;4982706;28;20327;-80
2022/10/12 11:29:11;;;;;;;11.45;2.95;;;;;;;11.09;73.42;101417.81;4981631;28;20073;-79
2022/10/12 11:32:26;;;;;;;9.40;3.10;;;;;;;11.34;73.27;101405.44;4997849;28;20049;-80
2022/10/12 11:35:35;;;;;;;12.35;3.40;;;;;;;11.60;71.84;101406.09;4990603;28;20053;-80
2022/10/12 11:38:38;;;;;;;12.60;2.42;;;;;;;11.80;71.27;101398.22;4989450;28;20131;-80
2022/10/12 11:41:48;;;;;;;11.05;3.40;;;;;;;11.96;71.13;101395.81;4989237;28;20519;-82
2022/10/12 11:44:51;;;;;;;9.43;3.30;;;;;;;12.18;70.79;101387.00;4990151;28;20416;-81
2022/10/12 11:48:00;;;;;;;8.30;2.90;;;;;;;12.43;70.17;101389.38;4990258;28;20049;-82
2022/10/12 11:51:04;;;;;;;7.68;2.42;;;;;;;12.47;69.72;101389.13;4988883;28;20050;-81
2022/10/12 11:54:31;;;;;;;11.93;2.72;;;;;;;12.47;69.82;101385.66;4976367;28;20072;-81
2022/10/12 11:57:36;;;;;;;9.35;2.47;;;;;;;12.45;69.53;101380.50;4986661;28;20697;-81
2022/10/12 12:00:56;;;;;;;7.95;2.50;;;;;;;12.62;69.51;101371.84;4985666;28;20045;-81
2022/10/12 12:04:23;;;;;;;8.93;3.45;;;;;;;12.66;70.57;101369.91;4984868;28;20092;-79
2022/10/12 12:07:47;;;;;;;10.75;2.50;;;;;;;12.65;70.01;101368.22;4989035;28;20715;-80
2022/10/12 12:11:03;;;;;;;10.02;2.80;;;;;;;12.65;70.45;101369.06;4990444;28;20041;-79
2022/10/12 12:14:25;;;;;;;9.73;2.90;;;;;;;12.88;69.77;101370.59;4989955;28;20072;-82
2022/10/12 12:17:31;;;;;;;12.10;4.07;;;;;;;13.28;68.52;101367.81;4990280;28;20069;-81
2022/10/12 12:20:43;;;;;;;9.38;3.00;;;;;;;13.48;68.48;101360.63;4990218;28;20049;-80
2022/10/12 12:23:54;;;;;;;11.40;3.73;;;;;;;13.52;67.10;101356.06;4989308;28;20715;-81
2022/10/12 12:26:59;;;;;;;9.77;3.22;;;;;;;13.49;67.20;101350.97;4989064;28;20049;-80
2022/10/12 12:30:33;;;;;;;10.75;3.95;;;;;;;13.74;66.99;101342.66;4988165;28;20057;-81
2022/10/12 12:33:41;;;;;;;7.32;2.60;;;;;;;13.90;65.47;101333.03;4968841;28;20061;-82
2022/10/12 12:36:48;;;;;;;8.63;2.90;;;;;;;13.95;65.41;101328.38;4972042;28;20105;-83
2022/10/12 12:39:55;;;;;;;10.32;2.85;;;;;;;13.95;65.75;101319.66;4982822;28;20555;-83
2022/10/12 12:43:29;;;;;;;8.13;2.53;;;;;;;14.06;65.86;101309.38;4983669;28;20056;-82
2022/10/12 12:47:02;;;;;;;8.75;2.65;;;;;;;14.05;65.82;101312.97;4977563;28;20499;-82
2022/10/12 12:50:27;;;;;;;12.52;2.80;;;;;;;14.07;66.23;101305.84;4986154;28;20117;-81
2022/10/12 12:53:31;;;;;;;9.23;2.97;;;;;;;14.13;66.98;101305.47;4981971;28;20045;-83
2022/10/12 12:57:10;;;;;;;9.23;2.83;;;;;;;14.15;68.97;101313.31;4984592;28;20093;-84
2022/10/12 13:00:19;;;;;;;11.55;2.53;;;;;;;14.15;68.99;101308.88;4986306;28;20106;-79
2022/10/12 13:03:50;;;;;;;9.93;2.83;;;;;;;14.26;69.67;101300.41;4989106;28;20112;-82
2022/10/12 13:07:12;;;;;;;6.90;2.55;;;;;;;14.25;69.55;101305.75;4990155;28;20463;-83
2022/10/12 13:10:39;;;;;;;10.75;2.92;;;;;;;14.19;69.79;101302.53;4989424;28;20053;-82
2022/10/12 13:14:01;;;;;;;10.57;3.20;;;;;;;14.16;70.17;101297.44;4988962;28;20049;-82
2022/10/12 13:17:17;;;;;;;11.60;2.78;;;;;;;14.21;70.46;101302.44;4988848;28;20069;-83
2022/10/12 13:20:28;;;;;;;9.43;2.95;;;;;;;14.35;70.54;101299.03;4988888;28;20089;-78
2022/10/12 13:23:34;;;;;;;10.50;3.22;;;;;;;14.30;71.29;101301.09;4976218;28;20049;-81
2022/10/12 13:26:39;;;;;;;9.07;3.20;;;;;;;14.29;70.89;101299.38;4980314;28;20049;-82
2022/10/12 13:30:03;;;;;;;11.55;2.88;;;;;;;14.37;71.14;101307.72;4989477;28;20048;-83
2022/10/12 13:33:14;;;;;;;6.38;2.65;;;;;;;14.41;70.19;101299.56;4982301;28;20539;-87
2022/10/12 13:36:29;;;;;;;9.85;3.05;;;;;;;14.50;68.78;101292.94;4978513;28;20105;-83
2022/10/12 13:39:38;;;;;;;8.45;3.20;;;;;;;14.45;69.32;101287.06;4991942;28;20181;-82
2022/10/12 13:42:41;;;;;;;6.05;2.63;;;;;;;14.31;70.14;101287.00;4992144;28;20103;-79
2022/10/12 13:45:47;;;;;;;11.23;3.47;;;;;;;14.24;71.23;101294.38;4992223;28;20089;-78
2022/10/12 13:48:50;;;;;;;8.00;2.67;;;;;;;14.25;72.14;101282.09;5013973;28;20121;-80
2022/10/12 13:51:59;;;;;;;11.18;3.20;;;;;;;14.28;71.75;101274.88;5002581;28;20109;-84
2022/10/12 13:55:15;;;;;;;9.00;2.63;;;;;;;14.31;71.21;101273.84;4991868;28;20141;-80
2022/10/12 13:58:27;;;;;;;16.80;3.60;;;;;;;14.35;71.00;101270.09;4991397;28;20049;-79
2022/10/12 14:01:32;;;;;;;12.27;3.17;;;;;;;14.42;71.21;101259.16;4992064;28;20113;-80
2022/10/12 14:04:35;;;;;;;7.72;2.50;;;;;;;14.46;70.48;101257.22;4993093;28;20064;-82
2022/10/12 14:07:43;;;;;;;8.75;3.08;;;;;;;14.37;70.54;101255.09;4988827;28;20049;-83
2022/10/12 14:10:48;;;;;;;9.32;2.67;;;;;;;14.33;71.57;101248.31;4975474;28;20556;-82
2022/10/12 14:13:52;;;;;;;10.57;3.42;;;;;;;14.30;71.83;101249.34;4977321;28;20065;-81
2022/10/12 14:16:59;;;;;;;13.93;3.40;;;;;;;14.14;72.34;101249.34;4995539;28;20101;-80
2022/10/12 14:20:14;;;;;;;8.10;3.08;;;;;;;14.08;72.02;101262.81;4995004;28;20045;-80
2022/10/12 14:23:23;;;;;;;12.90;2.90;;;;;;;14.03;72.14;101250.84;4995610;28;20566;-80
2022/10/12 14:26:36;;;;;;;10.63;3.97;;;;;;;14.04;72.10;101248.16;4995638;28;20141;-79
2022/10/12 14:29:43;;;;;;;10.95;4.20;;;;;;;14.36;71.33;101256.03;4995650;28;20104;-78
2022/10/12 14:32:49;;;;;;;10.90;2.95;;;;;;;14.45;71.15;101252.84;4995775;28;20408;-79
2022/10/12 14:36:12;;;;;;;11.40;3.45;;;;;;;14.39;71.26;101250.59;4995290;28;20570;-79
2022/10/12 14:39:19;;;;;;;12.07;3.38;;;;;;;14.34;72.02;101255.25;4994948;28;20061;-78
2022/10/12 14:42:34;;;;;;;7.72;3.38;;;;;;;14.32;71.98;101251.88;4995530;28;20049;-80
2022/10/12 14:45:40;;;;;;;7.43;2.90;;;;;;;14.19;72.91;101249.91;4994929;28;20415;-84
2022/10/12 14:48:44;;;;;;;6.60;3.05;;;;;;;14.03;73.69;101249.06;4994489;28;20046;-80
2022/10/12 14:51:49;;;;;;;11.38;3.20;;;;;;;13.93;74.57;101253.16;4994979;28;20096;-80
2022/10/12 14:54:57;;;;;;;8.43;3.10;;;;;;;13.93;76.78;101250.50;4974779;28;20049;-78
2022/10/12 14:58:09;;;;;;;9.07;2.85;;;;;;;13.85;76.35;101243.06;4975705;28;20053;-79
2022/10/12 15:01:13;;;;;;;13.15;3.97;;;;;;;13.76;76.87;101246.19;4974921;28;20121;-81
2022/10/12 15:04:16;;;;;;;;;;;;;;;13.73;77.29;101241.94;4973989;28;20568;-79